createdAt,value
2023-03-16T00:06:30.916Z,77.18
2023-03-16T00:18:38.659Z,77.72
2023-03-16T00:30:31.839Z,74.53
2023-03-16T00:42:32.292Z,76.63
2023-03-16T00:54:32.735Z,78.32
2023-03-16T01:06:33.179Z,74.18
2023-03-16T01:18:33.626Z,74.37
2023-03-16T01:30:34.124Z,74.62
2023-03-16T01:42:37.233Z,76.78
2023-03-16T01:54:37.269Z,75.70
2023-03-16T02:06:35.458Z,75.47
2023-03-16T02:18:35.886Z,79.66
2023-03-16T02:30:44.111Z,78.31
2023-03-16T02:42:36.789Z,77.93
2023-03-16T02:54:37.238Z,80.56
2023-03-16T03:06:37.706Z,84.05
2023-03-16T03:18:38.153Z,81.04
2023-03-16T03:30:38.598Z,78.72
2023-03-16T03:42:41.826Z,78.79
2023-03-16T03:54:39.537Z,80.85
2023-03-16T04:06:40.065Z,81.68
2023-03-16T04:18:40.377Z,84.08
2023-03-16T04:30:40.915Z,85.73
2023-03-16T04:42:41.304Z,84.64
2023-03-16T04:54:41.803Z,85.64
2023-03-16T05:06:42.192Z,82.09
2023-03-16T05:18:42.692Z,86.94
2023-03-16T05:30:43.119Z,87.01
2023-03-16T05:42:43.558Z,84.26
2023-03-16T05:54:44.030Z,85.56
2023-03-16T06:06:44.466Z,80.20
2023-03-16T06:18:47.697Z,81.65
2023-03-16T06:30:45.382Z,80.67
2023-03-16T06:42:47.337Z,82.46
2023-03-16T06:54:46.292Z,78.45
2023-03-16T07:06:46.767Z,67.79
2023-03-16T07:18:47.180Z,61.15
2023-03-16T07:31:02.419Z,62.79
2023-03-16T07:42:48.156Z,58.37
2023-03-16T07:54:48.558Z,57.53
2023-03-16T08:06:48.958Z,59.18
2023-03-16T08:18:49.453Z,59.05
2023-03-16T08:30:49.946Z,56.05
2023-03-16T08:42:50.393Z,53.07
2023-03-16T08:55:02.325Z,48.54
2023-03-16T09:07:05.849Z,50.18
2023-03-16T09:18:51.674Z,49.64
2023-03-16T09:30:52.167Z,47.21
2023-03-16T09:42:52.710Z,45.37
2023-03-16T09:54:53.053Z,43.55
2023-03-16T10:06:53.506Z,41.39
2023-03-16T10:18:53.970Z,42.98
2023-03-16T10:30:54.420Z,40.61
2023-03-16T10:42:54.869Z,38.45
2023-03-16T10:54:55.370Z,36.35
2023-03-16T11:06:55.803Z,35.63
2023-03-16T11:18:56.221Z,35.58
2023-03-16T11:30:56.722Z,34.19
2023-03-16T11:42:57.155Z,33.54
2023-03-16T11:54:57.602Z,34.42
2023-03-16T12:06:58.048Z,32.70
2023-03-16T12:18:58.487Z,31.68
2023-03-16T12:31:01.669Z,30.13
2023-03-16T12:42:59.421Z,29.58
2023-03-16T12:55:02.058Z,30.81
2023-03-16T13:07:00.292Z,28.49
2023-03-16T13:19:00.785Z,27.63
2023-03-16T13:31:01.262Z,27.82
2023-03-16T13:43:01.659Z,28.62
2023-03-16T13:55:02.158Z,28.66
2023-03-16T14:07:02.598Z,29.53
2023-03-16T14:19:03.056Z,28.26
2023-03-16T14:31:03.549Z,28.43
2023-03-16T14:43:03.965Z,31.83
2023-03-16T14:55:04.430Z,28.76
2023-03-16T15:07:04.888Z,28.36
2023-03-16T15:19:05.333Z,29.41
2023-03-16T15:31:05.837Z,30.47
2023-03-16T15:43:06.244Z,32.02
2023-03-16T15:55:06.715Z,33.18
2023-03-16T16:07:07.153Z,35.42
2023-03-16T16:19:07.603Z,38.70
2023-03-16T16:31:08.045Z,38.81
2023-03-16T16:43:08.503Z,40.86
2023-03-16T16:55:08.961Z,41.58
2023-03-16T17:07:09.378Z,43.41
2023-03-16T17:19:09.903Z,46.50
2023-03-16T17:31:10.456Z,49.30
2023-03-16T17:43:10.804Z,50.13
2023-03-16T17:55:11.209Z,52.02
2023-03-16T18:07:11.675Z,51.81
2023-03-16T18:19:12.164Z,53.51
2023-03-16T18:31:12.614Z,56.05
2023-03-16T18:43:12.993Z,56.17
2023-03-16T18:55:13.472Z,56.95
2023-03-16T19:07:13.960Z,62.62
2023-03-16T19:19:14.481Z,60.46
2023-03-16T19:31:14.877Z,58.70
2023-03-16T19:43:15.301Z,59.46
2023-03-16T19:55:15.753Z,62.56
2023-03-16T20:07:16.193Z,62.25
2023-03-16T20:19:16.648Z,64.88
2023-03-16T20:31:19.768Z,61.83
2023-03-16T20:43:17.581Z,61.04
2023-03-16T20:55:18.162Z,61.88
2023-03-16T21:07:18.470Z,64.15
2023-03-16T21:19:18.905Z,62.57
2023-03-16T21:31:19.770Z,67.73
2023-03-16T21:43:19.779Z,68.70
2023-03-16T21:55:23.938Z,65.24
2023-03-16T22:07:20.702Z,67.92
2023-03-16T22:19:21.174Z,68.66
2023-03-16T22:31:21.686Z,66.15
2023-03-16T22:43:24.769Z,68.96
2023-03-16T22:55:22.542Z,70.98
2023-03-16T23:07:22.974Z,71.15
2023-03-16T23:19:24.776Z,68.60
2023-03-16T23:31:23.868Z,67.50
2023-03-16T23:43:24.341Z,73.61
2023-03-16T23:55:24.801Z,70.47
